Wilbern, Illinois
Current Conditions -  °F | °C
As of 12:35 AM on Friday 31 Oct 2014 (Local Time) from KC75 Reporting Station
Haze Haze  
Wind Chill: 42°   Ceiling: 5000
Heat Index: 42°   Visibility: 5mi
Dew Point: 41°   Wind: 0mph
Humidity: 95%   Direction: NA
Pressure: 30.08"   Gusts: NA
Location:  40.9035°N, 89.2599°W
Report Text: KC75 310535Z AUTO 00000KT 5SM BR OVC050 06/05 A3008 RMK AO2 T00560048
Loading
Personal Weather Stations






























Interactive Weather Map
Tropical Storm Tracking
New forecast layout! Learn more

10-Day Weather Forecast

Advertisements
Track Severe Weather on mobile